Time;durP1;ratioP1;P1;durP2;ratioP2;P2;SDS_P1;SDS_P2;PMS_P1;PMS_P2;Temp;Humidity;BMP_temperature;BMP_pressure;BME280_temperature;BME280_humidity;BME280_pressure;Samples;Min_cycle;Max_cycle;Signal;HPM_P1;HPM_P2
2021/11/28 00:02:15;;;;;;;8.43;7.30;;;12.50;52.70;;;;;;5037288;28;20025;-57
2021/11/28 00:04:41;;;;;;;12.75;7.95;;;12.50;52.70;;;;;;5037080;28;20053;-57
2021/11/28 00:07:32;;;;;;;9.20;7.47;;;12.50;52.80;;;;;;5019888;28;20516;-58
2021/11/28 00:11:01;;;;;;;9.57;7.07;;;12.50;52.70;;;;;;5036862;28;20124;-56
2021/11/28 00:13:05;;;;;;;12.20;7.78;;;12.50;52.80;;;;;;5024169;28;20034;-54
2021/11/28 00:15:31;;;;;;;9.48;7.65;;;12.50;52.80;;;;;;5037776;28;20017;-54
2021/11/28 00:17:57;;;;;;;9.40;7.50;;;12.60;52.90;;;;;;5020408;28;20371;-57
2021/11/28 00:20:24;;;;;;;8.00;6.90;;;12.60;52.70;;;;;;5020120;28;20029;-54
2021/11/28 00:22:50;;;;;;;13.25;7.65;;;12.70;52.60;;;;;;5003809;28;20083;-55
2021/11/28 00:25:18;;;;;;;7.68;6.60;;;12.80;52.50;;;;;;5037565;28;20097;-56
2021/11/28 00:27:45;;;;;;;9.15;7.22;;;12.80;52.50;;;;;;5037389;28;20037;-56
2021/11/28 00:30:14;;;;;;;9.30;7.47;;;12.90;52.20;;;;;;5036577;28;20025;-53
2021/11/28 00:32:40;;;;;;;10.20;7.53;;;13.00;52.00;;;;;;5037595;28;20088;-55
2021/11/28 00:35:06;;;;;;;9.88;7.15;;;13.10;51.90;;;;;;5037462;28;20028;-54
2021/11/28 00:37:32;;;;;;;8.95;7.28;;;13.10;51.70;;;;;;5019308;28;20052;-54
2021/11/28 00:39:58;;;;;;;9.85;7.07;;;13.20;51.60;;;;;;5036761;28;20474;-54
2021/11/28 00:42:24;;;;;;;9.18;6.47;;;13.20;51.40;;;;;;5018696;28;20021;-54
2021/11/28 00:44:51;;;;;;;7.68;6.50;;;13.30;51.30;;;;;;5036692;28;20045;-55
2021/11/28 00:47:19;;;;;;;8.07;6.68;;;13.30;51.20;;;;;;5036416;28;20083;-57
2021/11/28 00:50:03;;;;;;;9.63;6.43;;;13.40;51.10;;;;;;5036789;28;20057;-55
2021/11/28 00:52:29;;;;;;;12.15;5.88;;;13.50;50.90;;;;;;5021730;28;20014;-55
2021/11/28 00:54:54;;;;;;;8.32;6.65;;;13.50;50.90;;;;;;5036662;28;20025;-55
2021/11/28 00:57:23;;;;;;;8.00;6.20;;;13.50;50.80;;;;;;5036785;28;20028;-56
2021/11/28 00:59:49;;;;;;;7.90;6.60;;;13.60;50.80;;;;;;5037065;28;20104;-56
2021/11/28 01:02:16;;;;;;;9.38;7.13;;;13.60;50.70;;;;;;5037555;28;20017;-56
2021/11/28 01:04:42;;;;;;;7.68;6.40;;;13.60;50.60;;;;;;5036558;28;20052;-54
2021/11/28 01:07:08;;;;;;;8.43;6.00;;;13.60;50.60;;;;;;5035610;28;20497;-52
2021/11/28 01:09:35;;;;;;;7.18;6.00;;;13.70;50.60;;;;;;5017704;28;20461;-54
2021/11/28 01:12:01;;;;;;;7.57;6.00;;;13.70;50.50;;;;;;5018244;28;20029;-54
2021/11/28 01:14:27;;;;;;;8.68;5.82;;;13.70;50.50;;;;;;5036578;28;20014;-57
2021/11/28 01:16:53;;;;;;;6.93;5.30;;;13.70;50.40;;;;;;5018584;28;20044;-56
2021/11/28 01:19:19;;;;;;;8.80;5.65;;;13.80;50.40;;;;;;5018620;28;20022;-54
2021/11/28 01:21:52;;;;;;;7.43;5.40;;;13.80;50.90;;;;;;5035579;28;20026;-56
2021/11/28 01:24:18;;;;;;;7.88;5.80;;;13.80;50.90;;;;;;5034548;28;20027;-53
2021/11/28 01:26:44;;;;;;;7.63;5.22;;;13.80;50.40;;;;;;5033901;28;20022;-51
2021/11/28 01:29:10;;;;;;;8.50;5.15;;;13.70;50.40;;;;;;5034452;28;20033;-52
2021/11/28 01:31:36;;;;;;;8.20;5.50;;;13.80;50.50;;;;;;5034713;28;20021;-50
2021/11/28 01:34:03;;;;;;;7.85;5.20;;;13.80;50.40;;;;;;5016706;28;20080;-51
2021/11/28 01:36:28;;;;;;;6.45;5.22;;;13.70;50.50;;;;;;5034220;28;20374;-54
2021/11/28 01:38:55;;;;;;;7.95;5.35;;;13.70;50.40;;;;;;5016754;28;20025;-50
2021/11/28 01:41:20;;;;;;;5.82;4.60;;;13.80;50.40;;;;;;4999153;28;20040;-52
2021/11/28 01:43:49;;;;;;;7.63;4.90;;;13.80;50.40;;;;;;5015938;28;20019;-54
2021/11/28 01:46:15;;;;;;;7.13;5.10;;;13.80;50.40;;;;;;5017469;28;20014;-51
2021/11/28 01:48:41;;;;;;;6.72;4.30;;;13.80;50.30;;;;;;5016486;28;20026;-53
2021/11/28 01:51:07;;;;;;;9.27;4.75;;;13.80;50.40;;;;;;5033906;28;20459;-49
2021/11/28 01:53:33;;;;;;;6.28;4.13;;;13.80;50.40;;;;;;5035050;28;20487;-52
2021/11/28 01:56:01;;;;;;;5.40;4.60;;;13.70;50.40;;;;;;5034933;28;20370;-53
2021/11/28 01:58:27;;;;;;;5.35;4.45;;;13.80;50.40;;;;;;5035504;28;20013;-53
2021/11/28 02:00:55;;;;;;;8.43;4.38;;;13.70;50.40;;;;;;5035322;28;20025;-51
2021/11/28 02:03:22;;;;;;;6.30;4.55;;;13.70;50.60;;;;;;5034502;28;20032;-53
2021/11/28 02:05:49;;;;;;;5.80;4.70;;;13.70;50.60;;;;;;5034058;28;20121;-53
2021/11/28 02:08:16;;;;;;;8.18;4.60;;;13.70;50.70;;;;;;5034453;28;20045;-52
2021/11/28 02:10:42;;;;;;;8.20;4.65;;;13.60;50.70;;;;;;5034333;28;20025;-55
2021/11/28 02:13:08;;;;;;;6.35;4.20;;;13.60;50.70;;;;;;5034966;28;20525;-50
2021/11/28 02:15:35;;;;;;;8.13;4.50;;;13.60;50.70;;;;;;5035370;28;20009;-51
2021/11/28 02:18:01;;;;;;;6.00;4.75;;;13.60;50.70;;;;;;5018373;28;20021;-52
2021/11/28 02:20:28;;;;;;;7.75;4.75;;;13.60;50.80;;;;;;5017396;28;20482;-52
2021/11/28 02:22:54;;;;;;;6.05;4.60;;;13.60;50.80;;;;;;5034231;28;20470;-54
2021/11/28 02:25:20;;;;;;;7.30;5.07;;;13.60;50.70;;;;;;5035037;28;20033;-51
2021/11/28 02:27:47;;;;;;;9.23;5.00;;;13.60;50.80;;;;;;5034548;28;20022;-55
2021/11/28 02:30:14;;;;;;;6.97;4.65;;;13.60;50.90;;;;;;5034646;28;20033;-50
2021/11/28 02:32:41;;;;;;;8.25;4.82;;;13.60;50.90;;;;;;5035844;28;20018;-54
2021/11/28 02:35:08;;;;;;;6.22;4.80;;;13.60;50.80;;;;;;5035172;28;20549;-51
2021/11/28 02:37:35;;;;;;;11.65;5.72;;;13.70;50.70;;;;;;5035081;28;20044;-54
2021/11/28 02:40:00;;;;;;;10.45;5.30;;;13.70;50.70;;;;;;5035485;28;20035;-52
2021/11/28 02:42:27;;;;;;;8.95;5.93;;;13.60;50.70;;;;;;5018725;28;20025;-53
2021/11/28 02:44:53;;;;;;;8.77;5.90;;;13.70;50.60;;;;;;5035744;28;20026;-59
2021/11/28 02:47:21;;;;;;;9.93;6.28;;;13.70;50.60;;;;;;5035389;28;20050;-58
2021/11/28 02:49:46;;;;;;;8.63;6.50;;;13.70;50.60;;;;;;5035955;28;20057;-58
2021/11/28 02:52:14;;;;;;;8.15;5.35;;;13.90;50.40;;;;;;5016352;28;20028;-57
2021/11/28 02:54:40;;;;;;;7.95;5.88;;;13.90;50.30;;;;;;5036858;28;20018;-55
2021/11/28 02:57:09;;;;;;;8.35;6.55;;;13.80;50.40;;;;;;5019789;28;20018;-57
2021/11/28 02:59:35;;;;;;;9.85;6.43;;;13.80;50.50;;;;;;5037022;28;20021;-56
2021/11/28 03:02:01;;;;;;;8.73;6.75;;;13.80;50.40;;;;;;5036752;28;20022;-57
2021/11/28 03:04:27;;;;;;;14.23;6.80;;;13.90;50.40;;;;;;5036413;28;20045;-54
2021/11/28 03:06:53;;;;;;;12.18;7.63;;;13.80;50.30;;;;;;5036560;28;20072;-54
2021/11/28 03:09:19;;;;;;;9.30;7.22;;;13.90;50.40;;;;;;5036345;28;20380;-54
2021/11/28 03:11:45;;;;;;;9.48;7.03;;;13.90;50.30;;;;;;5036800;28;20169;-54
2021/11/28 03:14:11;;;;;;;10.00;7.47;;;13.90;50.30;;;;;;5036521;28;20092;-56
2021/11/28 03:16:37;;;;;;;9.85;7.40;;;13.90;50.30;;;;;;5036615;28;20045;-54
2021/11/28 03:19:03;;;;;;;10.45;7.90;;;13.90;50.30;;;;;;5002264;28;20434;-52
2021/11/28 03:21:30;;;;;;;9.95;8.48;;;13.90;50.30;;;;;;5018850;28;20014;-54
2021/11/28 03:23:58;;;;;;;12.15;8.82;;;13.90;50.40;;;;;;5035899;28;20410;-54
2021/11/28 03:26:26;;;;;;;10.60;9.05;;;13.80;50.50;;;;;;5036156;28;20017;-53
2021/11/28 03:28:53;;;;;;;11.20;9.30;;;13.90;50.50;;;;;;5035985;28;20017;-55
2021/11/28 03:31:20;;;;;;;12.23;10.10;;;13.90;50.40;;;;;;5036070;28;20497;-54
2021/11/28 03:33:46;;;;;;;14.98;10.13;;;13.90;50.30;;;;;;5036363;28;20066;-54
2021/11/28 03:36:13;;;;;;;16.33;10.60;;;13.90;50.30;;;;;;5018619;28;20018;-55
2021/11/28 03:38:40;;;;;;;13.70;11.13;;;13.90;50.40;;;;;;5036540;28;20020;-53
2021/11/28 03:41:06;;;;;;;13.93;11.15;;;13.90;50.50;;;;;;5036934;28;20009;-56
2021/11/28 03:43:32;;;;;;;13.20;11.18;;;13.90;50.40;;;;;;5036489;28;20017;-57
2021/11/28 03:45:58;;;;;;;14.50;12.18;;;13.90;50.40;;;;;;5018756;28;20016;-57
2021/11/28 03:48:24;;;;;;;13.32;12.02;;;13.90;50.40;;;;;;5036756;28;20369;-56
2021/11/28 03:50:50;;;;;;;18.92;11.68;;;13.90;50.40;;;;;;5037561;28;20029;-53
2021/11/28 03:53:15;;;;;;;15.55;13.02;;;13.90;50.30;;;;;;5038699;28;20425;-51
2021/11/28 03:55:42;;;;;;;16.60;12.95;;;13.90;50.40;;;;;;5038568;28;20364;-56
2021/11/28 03:58:07;;;;;;;15.82;13.75;;;13.90;50.30;;;;;;5038257;28;20041;-54
2021/11/28 04:00:33;;;;;;;17.40;12.73;;;13.90;50.40;;;;;;5038194;28;20512;-56
2021/11/28 04:03:00;;;;;;;15.80;13.10;;;13.80;50.50;;;;;;5021396;28;20024;-51
2021/11/28 04:05:26;;;;;;;14.88;12.70;;;13.90;50.40;;;;;;5037784;28;20042;-54
2021/11/28 04:07:53;;;;;;;19.00;13.80;;;13.90;50.30;;;;;;5020974;28;20070;-57
2021/11/28 04:10:19;;;;;;;20.45;13.65;;;13.90;50.20;;;;;;5039052;28;20025;-58
2021/11/28 04:12:45;;;;;;;17.77;13.77;;;13.90;50.10;;;;;;5038823;28;20536;-55
2021/11/28 04:15:11;;;;;;;16.38;13.90;;;13.90;50.00;;;;;;5022168;28;20092;-56
2021/11/28 04:17:37;;;;;;;17.98;13.63;;;14.00;49.80;;;;;;5039237;28;20050;-58
2021/11/28 04:20:04;;;;;;;16.70;13.75;;;14.00;49.60;;;;;;5021487;28;20021;-57
2021/11/28 04:22:30;;;;;;;14.50;12.73;;;14.00;49.40;;;;;;5039430;28;20021;-57
2021/11/28 04:24:55;;;;;;;14.50;12.05;;;14.10;49.40;;;;;;5039048;28;20492;-56
2021/11/28 04:27:21;;;;;;;15.48;12.70;;;14.00;49.30;;;;;;5020654;28;20018;-57
2021/11/28 04:29:49;;;;;;;15.45;12.95;;;14.00;49.30;;;;;;5039302;28;20493;-55
2021/11/28 04:32:15;;;;;;;15.30;11.98;;;14.00;49.10;;;;;;5038833;28;20067;-57
2021/11/28 04:34:40;;;;;;;13.60;11.43;;;14.00;49.00;;;;;;5037878;28;20014;-53
2021/11/28 04:37:07;;;;;;;15.68;11.25;;;14.10;48.90;;;;;;5021722;28;20785;-54
2021/11/28 04:39:32;;;;;;;13.07;10.75;;;14.10;48.80;;;;;;5038790;28;20022;-54
2021/11/28 04:41:58;;;;;;;12.77;10.45;;;14.10;48.80;;;;;;5020432;28;20397;-57
2021/11/28 04:44:25;;;;;;;15.60;11.00;;;14.10;48.60;;;;;;5039456;28;20037;-56
2021/11/28 04:46:51;;;;;;;15.43;11.00;;;14.10;48.50;;;;;;5037131;28;20397;-52
2021/11/28 04:49:17;;;;;;;11.93;10.23;;;14.10;48.50;;;;;;5018668;28;20025;-54
2021/11/28 04:51:43;;;;;;;12.50;10.20;;;14.20;48.50;;;;;;5035961;28;20120;-58
2021/11/28 04:54:10;;;;;;;13.10;10.35;;;14.10;48.40;;;;;;5036195;28;20084;-54
2021/11/28 04:56:35;;;;;;;12.07;10.00;;;14.20;48.30;;;;;;5017821;28;20104;-53
2021/11/28 04:59:01;;;;;;;12.38;9.82;;;14.20;48.10;;;;;;5017824;28;20060;-56
2021/11/28 05:01:27;;;;;;;10.35;9.10;;;14.20;48.10;;;;;;5035666;28;20033;-55
2021/11/28 05:03:56;;;;;;;17.70;10.02;;;14.20;48.00;;;;;;5034910;28;20068;-56
2021/11/28 05:06:21;;;;;;;13.05;9.68;;;14.20;48.20;;;;;;5035287;28;20009;-58
2021/11/28 05:08:47;;;;;;;16.65;9.73;;;14.20;47.90;;;;;;5035317;28;20362;-58
2021/11/28 05:11:15;;;;;;;10.95;9.15;;;14.20;47.80;;;;;;5017529;28;20497;-58
2021/11/28 05:13:41;;;;;;;13.63;8.93;;;14.30;47.80;;;;;;5035410;28;20013;-57
2021/11/28 05:16:08;;;;;;;13.05;8.93;;;14.30;47.70;;;;;;5034463;28;20009;-58
2021/11/28 05:18:34;;;;;;;10.30;9.10;;;14.30;47.60;;;;;;5034769;28;20064;-57
2021/11/28 05:21:00;;;;;;;10.55;8.32;;;14.30;47.60;;;;;;5017633;28;20137;-58
2021/11/28 05:23:26;;;;;;;10.07;8.60;;;14.30;47.50;;;;;;5034266;28;20517;-58
2021/11/28 05:25:52;;;;;;;10.05;8.23;;;14.30;47.40;;;;;;5033978;28;20017;-56
2021/11/28 05:28:18;;;;;;;11.32;8.27;;;14.30;47.40;;;;;;5034545;28;20018;-58
2021/11/28 05:30:44;;;;;;;10.15;8.07;;;14.30;47.20;;;;;;5034276;28;20095;-58
2021/11/28 05:33:10;;;;;;;10.27;7.65;;;14.30;47.20;;;;;;5034212;28;20046;-58
2021/11/28 05:35:36;;;;;;;9.48;8.00;;;14.30;47.10;;;;;;5016958;28;20071;-57
2021/11/28 05:38:02;;;;;;;9.65;7.70;;;14.30;47.00;;;;;;5033926;28;20417;-58
2021/11/28 05:40:29;;;;;;;11.25;8.00;;;14.30;47.00;;;;;;5033917;28;20371;-57
2021/11/28 05:42:54;;;;;;;10.27;8.27;;;14.30;47.00;;;;;;5033610;28;20022;-58
2021/11/28 05:45:22;;;;;;;9.00;7.75;;;14.30;47.00;;;;;;5033534;28;20136;-54
2021/11/28 05:47:49;;;;;;;9.20;7.88;;;14.30;46.90;;;;;;5033753;28;20025;-55
2021/11/28 05:50:15;;;;;;;9.45;7.55;;;14.30;46.80;;;;;;5033408;28;20069;-54
2021/11/28 05:52:42;;;;;;;11.23;7.60;;;14.30;46.70;;;;;;5033536;28;20033;-56
2021/11/28 05:55:08;;;;;;;10.02;7.47;;;14.30;46.70;;;;;;5033702;28;20026;-55
2021/11/28 05:57:34;;;;;;;10.00;7.32;;;14.30;46.70;;;;;;5033659;28;20013;-53
2021/11/28 06:00:00;;;;;;;9.23;7.22;;;14.30;46.70;;;;;;5033687;28;20029;-55
2021/11/28 06:02:28;;;;;;;8.57;7.15;;;14.30;46.70;;;;;;4999889;28;20025;-54
2021/11/28 06:04:54;;;;;;;11.50;7.40;;;14.30;46.60;;;;;;5033377;28;20057;-54
2021/11/28 06:07:21;;;;;;;9.27;7.43;;;14.30;46.60;;;;;;5015782;28;20013;-53
2021/11/28 06:09:47;;;;;;;9.32;7.93;;;14.30;46.60;;;;;;4999883;28;20037;-55
2021/11/28 06:12:13;;;;;;;10.18;7.78;;;14.30;46.60;;;;;;5017960;28;20025;-57
2021/11/28 06:14:40;;;;;;;9.30;7.82;;;14.30;46.60;;;;;;5036889;28;20017;-57
2021/11/28 06:17:07;;;;;;;9.82;7.55;;;14.40;46.60;;;;;;5019465;28;20033;-54
2021/11/28 06:19:32;;;;;;;11.32;7.53;;;14.30;46.50;;;;;;5018761;28;20014;-53
2021/11/28 06:21:59;;;;;;;9.88;8.07;;;14.30;46.60;;;;;;5018739;28;20030;-54
2021/11/28 06:24:25;;;;;;;11.18;7.93;;;14.40;46.50;;;;;;5035442;28;20021;-53
2021/11/28 06:26:51;;;;;;;9.10;7.55;;;14.30;46.40;;;;;;5034315;28;20013;-55
2021/11/28 06:29:17;;;;;;;10.35;8.10;;;14.30;46.40;;;;;;5022364;28;20049;-55
2021/11/28 06:31:43;;;;;;;10.57;8.00;;;14.40;46.50;;;;;;5041174;28;20382;-55
2021/11/28 06:34:09;;;;;;;8.85;7.50;;;14.40;46.50;;;;;;5041494;28;20021;-55
2021/11/28 06:36:35;;;;;;;11.65;8.57;;;14.40;46.50;;;;;;5041659;28;20022;-54
2021/11/28 06:39:00;;;;;;;10.80;8.48;;;14.40;46.40;;;;;;5023527;28;20444;-54
2021/11/28 06:41:26;;;;;;;10.98;8.20;;;14.40;46.40;;;;;;5023584;28;20029;-55
2021/11/28 06:43:56;;;;;;;12.35;8.35;;;14.40;46.40;;;;;;5024002;28;20021;-51
2021/11/28 06:46:21;;;;;;;11.63;8.25;;;14.40;46.40;;;;;;5041578;28;20096;-53
2021/11/28 06:48:47;;;;;;;9.25;7.78;;;14.40;46.30;;;;;;5041710;28;20518;-53
2021/11/28 06:51:15;;;;;;;10.85;8.20;;;14.40;46.30;;;;;;5041902;28;20495;-51
2021/11/28 06:53:41;;;;;;;10.30;7.88;;;14.40;46.30;;;;;;5040994;28;20024;-54
2021/11/28 06:56:06;;;;;;;10.70;8.60;;;14.40;46.20;;;;;;5040350;28;20462;-53
2021/11/28 06:58:33;;;;;;;11.50;8.00;;;14.40;46.10;;;;;;5040024;28;20025;-54
2021/11/28 07:00:59;;;;;;;14.32;8.80;;;14.40;46.20;;;;;;5039947;28;20481;-54
2021/11/28 07:03:24;;;;;;;10.43;8.30;;;14.40;46.20;;;;;;5040682;28;20033;-58
2021/11/28 07:05:50;;;;;;;12.05;8.77;;;14.40;46.00;;;;;;5040676;28;20127;-57
2021/11/28 07:08:17;;;;;;;9.63;8.23;;;14.40;46.00;;;;;;5042280;28;20093;-57
2021/11/28 07:10:43;;;;;;;11.65;8.48;;;14.40;46.00;;;;;;5042419;28;20060;-56
2021/11/28 07:13:09;;;;;;;11.73;8.70;;;14.40;45.90;;;;;;5024205;28;20013;-54
2021/11/28 07:15:35;;;;;;;10.55;9.00;;;14.40;45.90;;;;;;5042127;28;20385;-55
2021/11/28 07:18:01;;;;;;;10.52;8.57;;;14.40;46.00;;;;;;5039750;28;20105;-55
2021/11/28 07:20:28;;;;;;;11.93;8.73;;;14.40;46.00;;;;;;5039913;28;20025;-53
2021/11/28 07:22:54;;;;;;;10.88;8.43;;;14.40;45.90;;;;;;5039805;28;20462;-57
2021/11/28 07:25:20;;;;;;;13.63;8.70;;;14.40;45.70;;;;;;5039654;28;20155;-56
2021/11/28 07:27:45;;;;;;;10.73;8.90;;;14.50;45.70;;;;;;5039349;28;20060;-53
2021/11/28 07:30:13;;;;;;;9.73;8.73;;;14.40;45.70;;;;;;5021227;28;20416;-54
2021/11/28 07:32:39;;;;;;;10.32;8.52;;;14.40;45.70;;;;;;5039819;28;20028;-55
2021/11/28 07:35:05;;;;;;;10.27;9.00;;;14.40;45.60;;;;;;5039316;28;20013;-55
2021/11/28 07:37:31;;;;;;;9.50;8.18;;;14.50;45.60;;;;;;5039674;28;20106;-54
2021/11/28 07:39:57;;;;;;;9.98;8.43;;;14.50;45.50;;;;;;5003632;28;20030;-55
2021/11/28 07:42:23;;;;;;;12.15;9.00;;;14.50;45.60;;;;;;5036024;28;20474;-55
2021/11/28 07:44:49;;;;;;;10.35;8.85;;;14.50;45.50;;;;;;5018491;28;20026;-53
2021/11/28 07:47:15;;;;;;;10.00;8.75;;;14.50;45.40;;;;;;5036253;28;20032;-54
2021/11/28 07:49:41;;;;;;;9.10;8.18;;;14.50;45.40;;;;;;5018792;28;20053;-53
2021/11/28 07:52:08;;;;;;;10.60;9.07;;;14.50;45.40;;;;;;5036273;28;20378;-53
2021/11/28 07:54:34;;;;;;;10.15;8.20;;;14.50;45.40;;;;;;5036135;28;20028;-54
2021/11/28 07:57:02;;;;;;;12.57;8.57;;;14.50;45.30;;;;;;5036416;28;20041;-52
2021/11/28 07:59:28;;;;;;;11.57;8.70;;;14.50;45.30;;;;;;5036215;28;20029;-54
2021/11/28 08:01:55;;;;;;;11.45;8.35;;;14.50;45.30;;;;;;5036212;28;21286;-53
2021/11/28 08:04:21;;;;;;;11.77;8.68;;;14.50;45.30;;;;;;5019044;28;20096;-50
2021/11/28 08:06:47;;;;;;;10.63;8.65;;;14.50;45.30;;;;;;5037124;28;20021;-50
2021/11/28 08:09:13;;;;;;;9.90;8.27;;;14.50;45.30;;;;;;5037017;28;20025;-51
2021/11/28 08:11:39;;;;;;;9.52;8.52;;;14.50;45.30;;;;;;5037023;28;20017;-55
2021/11/28 08:14:05;;;;;;;8.85;7.88;;;14.50;45.20;;;;;;5037119;28;20385;-52
2021/11/28 08:16:32;;;;;;;9.25;8.25;;;14.50;45.20;;;;;;5036281;28;20097;-50
2021/11/28 08:18:58;;;;;;;10.80;8.50;;;14.60;45.20;;;;;;5035837;28;20009;-54
2021/11/28 08:21:27;;;;;;;9.35;7.97;;;14.60;45.30;;;;;;5001692;28;20052;-51
2021/11/28 08:23:54;;;;;;;9.90;8.23;;;14.60;45.20;;;;;;5035676;28;20474;-50
2021/11/28 08:26:20;;;;;;;11.23;8.57;;;14.60;45.20;;;;;;5035910;28;20014;-51
2021/11/28 08:28:46;;;;;;;9.93;8.93;;;14.60;45.10;;;;;;5001676;28;20367;-50
2021/11/28 08:31:12;;;;;;;9.00;8.10;;;14.60;45.10;;;;;;5036101;28;20049;-51
2021/11/28 08:33:39;;;;;;;8.88;8.00;;;14.70;45.20;;;;;;5001548;28;20021;-50
2021/11/28 08:36:04;;;;;;;8.75;7.75;;;14.70;45.00;;;;;;5017948;28;20021;-52
2021/11/28 08:38:32;;;;;;;12.45;7.95;;;14.70;45.00;;;;;;5017916;28;20017;-51
2021/11/28 08:40:58;;;;;;;10.27;8.07;;;14.70;45.00;;;;;;5035638;28;20512;-52
2021/11/28 08:43:23;;;;;;;8.95;8.05;;;14.70;45.10;;;;;;5035538;28;20025;-50
2021/11/28 08:45:50;;;;;;;9.43;8.13;;;14.70;45.20;;;;;;5017980;28;20032;-52
2021/11/28 08:48:16;;;;;;;11.15;8.48;;;14.80;45.10;;;;;;5001669;28;20496;-52
2021/11/28 08:50:42;;;;;;;11.65;8.38;;;14.80;45.20;;;;;;5035302;28;20072;-54
2021/11/28 08:53:08;;;;;;;10.38;9.20;;;14.70;45.20;;;;;;5035910;28;20021;-55
2021/11/28 08:55:36;;;;;;;10.20;7.28;;;14.80;45.30;;;;;;5035876;28;20037;-53
2021/11/28 08:58:02;;;;;;;8.65;7.70;;;14.80;45.30;;;;;;5018694;28;20060;-52
2021/11/28 09:00:28;;;;;;;8.73;7.78;;;14.70;45.40;;;;;;5036445;28;20470;-53
2021/11/28 09:02:54;;;;;;;9.02;7.18;;;14.70;45.40;;;;;;5035814;28;20485;-50
2021/11/28 09:05:21;;;;;;;8.88;7.35;;;14.80;45.50;;;;;;5036083;28;20112;-51
2021/11/28 09:07:48;;;;;;;10.45;7.70;;;14.80;45.40;;;;;;5036175;28;20018;-55
2021/11/28 09:10:15;;;;;;;8.45;6.70;;;14.80;45.40;;;;;;5036448;28;20021;-53
2021/11/28 09:12:41;;;;;;;9.70;7.03;;;14.80;45.40;;;;;;5037018;28;20017;-53
2021/11/28 09:15:07;;;;;;;11.00;7.53;;;14.80;45.50;;;;;;5036693;28;20010;-53
2021/11/28 09:17:33;;;;;;;9.93;6.78;;;14.80;45.50;;;;;;5036296;28;20024;-53
2021/11/28 09:20:05;;;;;;;7.95;6.70;;;14.80;45.60;;;;;;5037579;28;20071;-53
2021/11/28 09:25:14;;;;;;;9.68;7.38;;;14.80;45.70;;;;;;5037099;28;20045;-54
2021/11/28 09:27:48;;;;;;;8.25;6.68;;;14.90;45.70;;;;;;5037730;28;20013;-55
2021/11/28 09:30:16;;;;;;;10.60;6.63;;;14.90;45.80;;;;;;5037295;28;20023;-54
2021/11/28 09:32:42;;;;;;;7.93;7.00;;;14.80;45.80;;;;;;5018721;28;20024;-53
2021/11/28 09:35:08;;;;;;;9.13;6.88;;;14.80;46.00;;;;;;5036251;28;20434;-57
2021/11/28 09:37:33;;;;;;;8.07;6.50;;;14.90;46.00;;;;;;5018501;28;20021;-55
2021/11/28 09:40:00;;;;;;;8.35;6.53;;;14.90;46.00;;;;;;5036548;28;20014;-52
2021/11/28 09:42:31;;;;;;;11.02;6.45;;;14.90;46.00;;;;;;5036881;28;20013;-51
2021/11/28 09:44:58;;;;;;;8.13;6.85;;;14.90;46.20;;;;;;5019649;28;20022;-54
2021/11/28 09:47:26;;;;;;;9.43;6.65;;;14.90;46.20;;;;;;5036970;28;20022;-55
2021/11/28 09:49:52;;;;;;;10.45;6.28;;;14.90;46.20;;;;;;5019797;28;20033;-55
2021/11/28 09:52:23;;;;;;;9.43;5.90;;;14.90;46.20;;;;;;5002178;28;20452;-56
2021/11/28 09:54:49;;;;;;;;;;;14.90;46.30;;;;;;5037064;28;20025;-54
2021/11/28 09:57:17;;;;;;;6.60;5.93;;;14.90;46.40;;;;;;5036797;28;19901;-53
2021/11/28 09:59:43;;;;;;;8.30;6.07;;;14.90;46.40;;;;;;5036586;28;20029;-52
2021/11/28 10:02:24;;;;;;;6.97;6.07;;;14.90;46.50;;;;;;5018805;28;20021;-55
2021/11/28 10:04:50;;;;;;;7.60;5.82;;;14.90;46.60;;;;;;5035438;28;20065;-54
2021/11/28 10:07:17;;;;;;;7.25;5.82;;;14.90;46.60;;;;;;5035555;28;20095;-55
2021/11/28 10:09:43;;;;;;;6.30;5.32;;;14.90;46.60;;;;;;5035171;28;20026;-53
2021/11/28 10:12:20;;;;;;;8.13;5.38;;;14.90;46.60;;;;;;5035126;28;20013;-52
2021/11/28 10:15:25;;;;;;;5.47;4.40;;;14.90;46.70;;;;;;5035443;28;20029;-54
2021/11/28 10:17:50;;;;;;;5.15;4.45;;;14.90;46.70;;;;;;5035473;28;20018;-53
2021/11/28 10:20:19;;;;;;;6.80;5.03;;;14.90;46.80;;;;;;5016954;28;20028;-55
2021/11/28 10:22:46;;;;;;;5.35;4.85;;;15.00;46.90;;;;;;5034448;28;20026;-51
2021/11/28 10:25:28;;;;;;;5.97;4.55;;;15.00;46.90;;;;;;5034569;28;20045;-55
2021/11/28 10:28:04;;;;;;;6.45;4.10;;;15.00;47.00;;;;;;5035037;28;20029;-57
2021/11/28 10:30:29;;;;;;;5.40;4.00;;;14.90;47.10;;;;;;5034865;28;20116;-55
2021/11/28 10:32:56;;;;;;;5.15;3.97;;;14.90;47.30;;;;;;5016408;28;20049;-54
2021/11/28 10:35:22;;;;;;;4.32;3.42;;;14.90;47.30;;;;;;5033957;28;20500;-55
2021/11/28 10:37:49;;;;;;;4.78;3.53;;;14.90;47.50;;;;;;5017033;28;20104;-55
2021/11/28 10:40:23;;;;;;;5.75;3.35;;;14.90;47.60;;;;;;5034372;28;20034;-55
2021/11/28 10:42:50;;;;;;;4.13;2.67;;;14.90;47.60;;;;;;5033964;28;20100;-56
2021/11/28 10:45:20;;;;;;;3.20;2.50;;;14.80;47.70;;;;;;5034352;28;20033;-54
2021/11/28 10:47:56;;;;;;;3.50;2.60;;;14.70;48.00;;;;;;5033659;28;20045;-56
2021/11/28 10:50:33;;;;;;;3.65;2.63;;;14.70;48.00;;;;;;5015897;28;20473;-55
2021/11/28 10:53:03;;;;;;;4.70;2.47;;;14.70;48.00;;;;;;5034082;28;20018;-57
2021/11/28 10:55:33;;;;;;;4.55;2.20;;;14.70;48.10;;;;;;5035076;28;20026;-54
2021/11/28 10:58:13;;;;;;;3.72;2.00;;;14.70;48.00;;;;;;5033406;28;20045;-54
2021/11/28 11:00:48;;;;;;;2.88;1.75;;;14.70;48.10;;;;;;5033846;28;20068;-54
2021/11/28 11:03:31;;;;;;;3.08;1.70;;;14.70;48.20;;;;;;5033626;28;20029;-54
2021/11/28 11:06:24;;;;;;;2.10;1.42;;;14.70;48.20;;;;;;5032740;28;20049;-55
2021/11/28 11:08:53;;;;;;;2.58;1.60;;;14.60;48.30;;;;;;5033048;28;20096;-54
2021/11/28 11:11:19;;;;;;;2.60;1.42;;;14.60;48.30;;;;;;5032686;28;20079;-54
2021/11/28 11:14:01;;;;;;;2.10;1.38;;;14.60;48.30;;;;;;5033054;28;20021;-51
2021/11/28 11:16:39;;;;;;;2.28;1.25;;;14.60;48.40;;;;;;5036344;28;20005;-53
2021/11/28 11:19:28;;;;;;;1.83;1.10;;;14.60;48.40;;;;;;5036546;28;20016;-51
2021/11/28 11:22:03;;;;;;;2.03;1.00;;;14.60;48.40;;;;;;5036642;28;20025;-51
2021/11/28 11:24:29;;;;;;;1.98;1.05;;;14.70;48.30;;;;;;5036143;28;20018;-50
2021/11/28 11:27:06;;;;;;;1.45;0.90;;;14.70;48.20;;;;;;5036385;28;20022;-51
2021/11/28 11:29:32;;;;;;;2.45;0.88;;;14.70;48.20;;;;;;5036028;28;20389;-53
2021/11/28 11:31:58;;;;;;;1.33;0.85;;;14.70;48.10;;;;;;5035955;28;20073;-52
2021/11/28 11:34:25;;;;;;;1.88;0.90;;;14.70;48.00;;;;;;5018455;28;20104;-57
2021/11/28 11:37:02;;;;;;;2.78;0.70;;;14.80;48.00;;;;;;5036202;28;20024;-54
2021/11/28 11:39:30;;;;;;;1.38;0.70;;;14.80;47.90;;;;;;5018236;28;20068;-50
2021/11/28 11:41:56;;;;;;;1.30;0.70;;;14.80;48.00;;;;;;5035963;28;20018;-53
2021/11/28 11:44:24;;;;;;;3.70;0.70;;;14.70;47.90;;;;;;5035806;28;20029;-51
2021/11/28 11:46:50;;;;;;;1.70;0.70;;;14.70;47.90;;;;;;5035871;28;20021;-52
2021/11/28 11:49:16;;;;;;;1.58;0.70;;;14.80;47.90;;;;;;5035610;28;20063;-51
2021/11/28 11:51:43;;;;;;;1.02;0.65;;;14.70;47.90;;;;;;5035718;28;20009;-54
2021/11/28 11:54:17;;;;;;;1.10;0.60;;;14.80;47.90;;;;;;5017907;28;20040;-51
2021/11/28 11:56:43;;;;;;;0.65;0.60;;;14.80;48.00;;;;;;5035254;28;20032;-52
2021/11/28 11:59:34;;;;;;;0.85;0.50;;;14.70;48.00;;;;;;5035568;28;20048;-54
2021/11/28 12:02:04;;;;;;;1.10;0.40;;;14.60;48.10;;;;;;5036942;28;20014;-55
2021/11/28 12:04:47;;;;;;;1.92;0.70;;;14.60;48.10;;;;;;5039315;28;20049;-52
2021/11/28 12:07:13;;;;;;;0.50;0.40;;;14.60;48.00;;;;;;5039927;28;20020;-54
2021/11/28 12:09:41;;;;;;;0.57;0.40;;;14.60;48.00;;;;;;5039737;28;20041;-53
2021/11/28 12:12:12;;;;;;;1.85;0.50;;;14.60;48.00;;;;;;5038732;28;20014;-55
2021/11/28 12:14:38;;;;;;;1.33;0.75;;;14.60;47.90;;;;;;5039824;28;20041;-51
2021/11/28 12:17:41;;;;;;;0.98;0.70;;;14.70;47.90;;;;;;5021594;28;20111;-50
2021/11/28 12:20:07;;;;;;;1.25;0.60;;;14.60;47.90;;;;;;5037977;28;20041;-53
2021/11/28 12:22:43;;;;;;;0.88;0.45;;;14.60;47.90;;;;;;5037068;28;20020;-51
2021/11/28 12:25:48;;;;;;;0.93;0.50;;;14.60;47.90;;;;;;5036391;28;20428;-52
2021/11/28 12:28:20;;;;;;;1.45;0.60;;;14.60;48.10;;;;;;5036355;28;20022;-53
2021/11/28 12:30:56;;;;;;;1.27;0.60;;;14.50;48.00;;;;;;5035617;28;20029;-52
2021/11/28 12:33:53;;;;;;;1.48;0.60;;;14.60;47.90;;;;;;5034934;28;20029;-53
2021/11/28 12:36:41;;;;;;;1.13;0.50;;;14.60;47.90;;;;;;5035066;28;20028;-50
2021/11/28 12:39:08;;;;;;;0.45;0.32;;;14.60;47.80;;;;;;5034736;28;20013;-51
2021/11/28 12:41:47;;;;;;;1.20;0.50;;;14.60;47.70;;;;;;5035155;28;20071;-54
2021/11/28 12:44:15;;;;;;;0.80;0.50;;;14.60;47.60;;;;;;5034719;28;20025;-53
2021/11/28 12:46:46;;;;;;;1.20;0.80;;;14.70;47.60;;;;;;5034910;28;20075;-53
2021/11/28 12:49:36;;;;;;;2.60;0.90;;;14.70;47.50;;;;;;5034259;28;20374;-53
2021/11/28 12:52:22;;;;;;;2.75;1.23;;;14.70;47.50;;;;;;5016683;28;20029;-54